sensor_id;sensor_type;location;lat;lon;timestamp;P1;durP1;ratioP1;P2;durP2;ratioP2
54269;SDS011;40181;51.560;13.000;2024-01-16T00:00:07;6.00;;;2.88;;
54269;SDS011;40181;51.560;13.000;2024-01-16T00:02:40;5.97;;;2.60;;
54269;SDS011;40181;51.560;13.000;2024-01-16T00:05:10;2.78;;;2.08;;
54269;SDS011;40181;51.560;13.000;2024-01-16T00:07:39;4.18;;;2.47;;
54269;SDS011;40181;51.560;13.000;2024-01-16T00:10:09;3.42;;;2.42;;
54269;SDS011;40181;51.560;13.000;2024-01-16T00:12:38;3.95;;;2.63;;
54269;SDS011;40181;51.560;13.000;2024-01-16T00:15:08;9.40;;;2.90;;
54269;SDS011;40181;51.560;13.000;2024-01-16T00:17:40;2.50;;;2.30;;
54269;SDS011;40181;51.560;13.000;2024-01-16T00:20:09;2.50;;;2.28;;
54269;SDS011;40181;51.560;13.000;2024-01-16T00:22:39;5.70;;;3.08;;
54269;SDS011;40181;51.560;13.000;2024-01-16T00:25:08;8.38;;;2.95;;
54269;SDS011;40181;51.560;13.000;2024-01-16T00:27:37;3.08;;;2.30;;
54269;SDS011;40181;51.560;13.000;2024-01-16T00:30:08;4.13;;;2.67;;
54269;SDS011;40181;51.560;13.000;2024-01-16T00:32:41;5.32;;;3.28;;
54269;SDS011;40181;51.560;13.000;2024-01-16T00:35:10;3.72;;;2.38;;
54269;SDS011;40181;51.560;13.000;2024-01-16T00:37:39;5.45;;;3.35;;
54269;SDS011;40181;51.560;13.000;2024-01-16T00:40:08;3.88;;;3.03;;
54269;SDS011;40181;51.560;13.000;2024-01-16T00:42:38;4.50;;;2.97;;
54269;SDS011;40181;51.560;13.000;2024-01-16T00:45:07;6.53;;;3.97;;
54269;SDS011;40181;51.560;13.000;2024-01-16T00:47:39;4.20;;;2.60;;
54269;SDS011;40181;51.560;13.000;2024-01-16T00:50:08;3.28;;;2.47;;
54269;SDS011;40181;51.560;13.000;2024-01-16T00:52:38;3.15;;;2.28;;
54269;SDS011;40181;51.560;13.000;2024-01-16T00:55:07;3.88;;;2.47;;
54269;SDS011;40181;51.560;13.000;2024-01-16T00:57:36;2.10;;;2.00;;
54269;SDS011;40181;51.560;13.000;2024-01-16T01:00:06;3.92;;;2.60;;
54269;SDS011;40181;51.560;13.000;2024-01-16T01:02:39;4.47;;;3.15;;
54269;SDS011;40181;51.560;13.000;2024-01-16T01:05:09;3.85;;;2.20;;
54269;SDS011;40181;51.560;13.000;2024-01-16T01:07:38;3.20;;;2.90;;
54269;SDS011;40181;51.560;13.000;2024-01-16T01:10:07;10.98;;;3.33;;
54269;SDS011;40181;51.560;13.000;2024-01-16T01:12:37;3.10;;;2.67;;
54269;SDS011;40181;51.560;13.000;2024-01-16T01:15:06;2.50;;;2.30;;
54269;SDS011;40181;51.560;13.000;2024-01-16T01:17:35;4.72;;;3.10;;
54269;SDS011;40181;51.560;13.000;2024-01-16T01:20:07;5.28;;;3.03;;
54269;SDS011;40181;51.560;13.000;2024-01-16T01:22:38;2.80;;;2.53;;
54269;SDS011;40181;51.560;13.000;2024-01-16T01:25:07;3.28;;;2.70;;
54269;SDS011;40181;51.560;13.000;2024-01-16T01:27:37;4.73;;;2.83;;
54269;SDS011;40181;51.560;13.000;2024-01-16T01:30:06;4.18;;;3.17;;
54269;SDS011;40181;51.560;13.000;2024-01-16T01:32:37;3.78;;;2.67;;
54269;SDS011;40181;51.560;13.000;2024-01-16T01:35:11;4.35;;;2.75;;
54269;SDS011;40181;51.560;13.000;2024-01-16T01:37:40;6.57;;;2.85;;
54269;SDS011;40181;51.560;13.000;2024-01-16T01:40:10;2.30;;;2.10;;
54269;SDS011;40181;51.560;13.000;2024-01-16T01:42:40;4.50;;;2.97;;
54269;SDS011;40181;51.560;13.000;2024-01-16T01:45:10;2.92;;;2.30;;
54269;SDS011;40181;51.560;13.000;2024-01-16T01:47:39;2.70;;;2.38;;
54269;SDS011;40181;51.560;13.000;2024-01-16T01:50:13;2.63;;;2.42;;
54269;SDS011;40181;51.560;13.000;2024-01-16T01:52:42;3.47;;;2.65;;
54269;SDS011;40181;51.560;13.000;2024-01-16T01:55:13;2.60;;;2.40;;
54269;SDS011;40181;51.560;13.000;2024-01-16T01:57:42;3.80;;;3.03;;
54269;SDS011;40181;51.560;13.000;2024-01-16T02:00:12;3.33;;;2.63;;
54269;SDS011;40181;51.560;13.000;2024-01-16T02:02:42;3.17;;;2.78;;
54269;SDS011;40181;51.560;13.000;2024-01-16T02:05:14;2.90;;;2.60;;
54269;SDS011;40181;51.560;13.000;2024-01-16T02:07:44;3.38;;;2.50;;
54269;SDS011;40181;51.560;13.000;2024-01-16T02:10:13;4.43;;;2.88;;
54269;SDS011;40181;51.560;13.000;2024-01-16T02:12:42;4.40;;;3.50;;
54269;SDS011;40181;51.560;13.000;2024-01-16T02:15:11;3.85;;;3.40;;
54269;SDS011;40181;51.560;13.000;2024-01-16T02:17:40;3.03;;;2.72;;
54269;SDS011;40181;51.560;13.000;2024-01-16T02:20:09;4.85;;;3.03;;
54269;SDS011;40181;51.560;13.000;2024-01-16T02:22:41;2.97;;;2.63;;
54269;SDS011;40181;51.560;13.000;2024-01-16T02:25:19;3.28;;;2.75;;
54269;SDS011;40181;51.560;13.000;2024-01-16T02:27:48;2.63;;;2.42;;
54269;SDS011;40181;51.560;13.000;2024-01-16T02:30:17;4.00;;;3.25;;
54269;SDS011;40181;51.560;13.000;2024-01-16T02:32:46;3.08;;;2.75;;
54269;SDS011;40181;51.560;13.000;2024-01-16T02:35:16;3.17;;;2.25;;
54269;SDS011;40181;51.560;13.000;2024-01-16T02:37:45;3.70;;;2.72;;
54269;SDS011;40181;51.560;13.000;2024-01-16T02:40:14;3.75;;;2.40;;
54269;SDS011;40181;51.560;13.000;2024-01-16T02:42:45;7.50;;;2.92;;
54269;SDS011;40181;51.560;13.000;2024-01-16T02:45:14;4.07;;;2.53;;
54269;SDS011;40181;51.560;13.000;2024-01-16T02:47:44;5.72;;;2.97;;
54269;SDS011;40181;51.560;13.000;2024-01-16T02:50:13;3.47;;;2.58;;
54269;SDS011;40181;51.560;13.000;2024-01-16T02:52:42;3.00;;;2.38;;
54269;SDS011;40181;51.560;13.000;2024-01-16T02:55:11;2.70;;;2.42;;
54269;SDS011;40181;51.560;13.000;2024-01-16T02:57:40;4.47;;;2.75;;
54269;SDS011;40181;51.560;13.000;2024-01-16T03:00:12;4.03;;;2.13;;
54269;SDS011;40181;51.560;13.000;2024-01-16T03:02:42;3.70;;;2.47;;
54269;SDS011;40181;51.560;13.000;2024-01-16T03:05:11;3.30;;;2.33;;
54269;SDS011;40181;51.560;13.000;2024-01-16T03:07:41;2.60;;;1.73;;
54269;SDS011;40181;51.560;13.000;2024-01-16T03:10:22;2.60;;;1.98;;
54269;SDS011;40181;51.560;13.000;2024-01-16T03:12:51;2.60;;;2.10;;
54269;SDS011;40181;51.560;13.000;2024-01-16T03:15:23;2.70;;;2.05;;
54269;SDS011;40181;51.560;13.000;2024-01-16T03:17:52;3.90;;;2.38;;
54269;SDS011;40181;51.560;13.000;2024-01-16T03:20:21;2.53;;;1.98;;
54269;SDS011;40181;51.560;13.000;2024-01-16T03:22:50;2.88;;;2.30;;
54269;SDS011;40181;51.560;13.000;2024-01-16T03:25:19;2.00;;;1.88;;
54269;SDS011;40181;51.560;13.000;2024-01-16T03:27:49;2.45;;;1.80;;
54269;SDS011;40181;51.560;13.000;2024-01-16T03:30:18;2.35;;;1.90;;
54269;SDS011;40181;51.560;13.000;2024-01-16T03:32:50;6.15;;;1.98;;
54269;SDS011;40181;51.560;13.000;2024-01-16T03:35:19;2.13;;;1.92;;
54269;SDS011;40181;51.560;13.000;2024-01-16T03:37:48;2.33;;;2.00;;
54269;SDS011;40181;51.560;13.000;2024-01-16T03:40:17;2.35;;;2.00;;
54269;SDS011;40181;51.560;13.000;2024-01-16T03:42:46;3.33;;;2.30;;
54269;SDS011;40181;51.560;13.000;2024-01-16T03:45:15;3.85;;;2.40;;
54269;SDS011;40181;51.560;13.000;2024-01-16T03:47:44;2.70;;;2.15;;
54269;SDS011;40181;51.560;13.000;2024-01-16T03:50:17;2.60;;;2.10;;
54269;SDS011;40181;51.560;13.000;2024-01-16T03:52:46;2.42;;;2.13;;
54269;SDS011;40181;51.560;13.000;2024-01-16T03:55:15;3.28;;;2.15;;
54269;SDS011;40181;51.560;13.000;2024-01-16T03:57:44;2.30;;;1.95;;
54269;SDS011;40181;51.560;13.000;2024-01-16T04:00:13;4.65;;;2.17;;
54269;SDS011;40181;51.560;13.000;2024-01-16T04:02:43;1.95;;;1.83;;
54269;SDS011;40181;51.560;13.000;2024-01-16T04:05:12;1.73;;;1.63;;
54269;SDS011;40181;51.560;13.000;2024-01-16T04:07:44;3.47;;;2.58;;
54269;SDS011;40181;51.560;13.000;2024-01-16T04:10:13;5.22;;;2.63;;
54269;SDS011;40181;51.560;13.000;2024-01-16T04:12:42;3.92;;;1.98;;
54269;SDS011;40181;51.560;13.000;2024-01-16T04:15:11;2.35;;;1.83;;
54269;SDS011;40181;51.560;13.000;2024-01-16T04:17:40;2.03;;;1.85;;
54269;SDS011;40181;51.560;13.000;2024-01-16T04:20:10;3.45;;;2.22;;
54269;SDS011;40181;51.560;13.000;2024-01-16T04:22:40;2.33;;;2.15;;
54269;SDS011;40181;51.560;13.000;2024-01-16T04:25:12;2.17;;;1.92;;
54269;SDS011;40181;51.560;13.000;2024-01-16T04:27:42;1.77;;;1.67;;
54269;SDS011;40181;51.560;13.000;2024-01-16T04:30:11;2.42;;;2.22;;
54269;SDS011;40181;51.560;13.000;2024-01-16T04:32:41;3.25;;;2.30;;
54269;SDS011;40181;51.560;13.000;2024-01-16T04:35:10;3.45;;;2.47;;
54269;SDS011;40181;51.560;13.000;2024-01-16T04:37:40;2.35;;;2.00;;
54269;SDS011;40181;51.560;13.000;2024-01-16T04:40:11;2.40;;;2.20;;
54269;SDS011;40181;51.560;13.000;2024-01-16T04:42:40;3.55;;;2.10;;
54269;SDS011;40181;51.560;13.000;2024-01-16T04:45:10;1.65;;;1.55;;
54269;SDS011;40181;51.560;13.000;2024-01-16T04:47:39;1.90;;;1.77;;
54269;SDS011;40181;51.560;13.000;2024-01-16T04:50:08;1.65;;;1.55;;
54269;SDS011;40181;51.560;13.000;2024-01-16T04:52:37;2.45;;;2.20;;
54269;SDS011;40181;51.560;13.000;2024-01-16T04:55:09;3.53;;;2.35;;
54269;SDS011;40181;51.560;13.000;2024-01-16T04:57:38;2.42;;;2.22;;
54269;SDS011;40181;51.560;13.000;2024-01-16T05:00:08;3.47;;;2.38;;
54269;SDS011;40181;51.560;13.000;2024-01-16T05:02:41;2.05;;;1.90;;
54269;SDS011;40181;51.560;13.000;2024-01-16T05:05:10;3.78;;;2.47;;
54269;SDS011;40181;51.560;13.000;2024-01-16T05:07:40;2.83;;;2.50;;
54269;SDS011;40181;51.560;13.000;2024-01-16T05:10:12;1.70;;;1.60;;
54269;SDS011;40181;51.560;13.000;2024-01-16T05:12:41;2.88;;;2.17;;
54269;SDS011;40181;51.560;13.000;2024-01-16T05:15:10;6.28;;;2.13;;
54269;SDS011;40181;51.560;13.000;2024-01-16T05:17:40;3.35;;;2.60;;
54269;SDS011;40181;51.560;13.000;2024-01-16T05:20:11;4.15;;;2.30;;
54269;SDS011;40181;51.560;13.000;2024-01-16T05:22:41;7.15;;;2.60;;
54269;SDS011;40181;51.560;13.000;2024-01-16T05:25:12;4.50;;;3.05;;
54269;SDS011;40181;51.560;13.000;2024-01-16T05:27:42;2.20;;;2.00;;
54269;SDS011;40181;51.560;13.000;2024-01-16T05:30:11;3.20;;;2.35;;
54269;SDS011;40181;51.560;13.000;2024-01-16T05:32:41;2.65;;;2.03;;
54269;SDS011;40181;51.560;13.000;2024-01-16T05:35:10;2.95;;;2.33;;
54269;SDS011;40181;51.560;13.000;2024-01-16T05:37:39;5.75;;;2.30;;
54269;SDS011;40181;51.560;13.000;2024-01-16T05:40:08;5.63;;;2.97;;
54269;SDS011;40181;51.560;13.000;2024-01-16T05:42:40;2.30;;;2.10;;
54269;SDS011;40181;51.560;13.000;2024-01-16T05:45:10;3.87;;;2.40;;
54269;SDS011;40181;51.560;13.000;2024-01-16T05:47:39;4.25;;;2.65;;
54269;SDS011;40181;51.560;13.000;2024-01-16T05:50:08;2.33;;;2.13;;
54269;SDS011;40181;51.560;13.000;2024-01-16T05:52:38;6.10;;;2.78;;
54269;SDS011;40181;51.560;13.000;2024-01-16T05:55:08;4.22;;;2.05;;
54269;SDS011;40181;51.560;13.000;2024-01-16T05:57:39;3.95;;;1.98;;
54269;SDS011;40181;51.560;13.000;2024-01-16T06:00:09;2.17;;;2.08;;
54269;SDS011;40181;51.560;13.000;2024-01-16T06:02:39;2.72;;;2.20;;
54269;SDS011;40181;51.560;13.000;2024-01-16T06:05:08;2.20;;;2.00;;
54269;SDS011;40181;51.560;13.000;2024-01-16T06:07:37;5.07;;;2.42;;
54269;SDS011;40181;51.560;13.000;2024-01-16T06:10:08;2.30;;;2.10;;
54269;SDS011;40181;51.560;13.000;2024-01-16T06:12:42;2.10;;;1.77;;
54269;SDS011;40181;51.560;13.000;2024-01-16T06:15:11;1.83;;;1.67;;
54269;SDS011;40181;51.560;13.000;2024-01-16T06:17:40;1.67;;;1.58;;
54269;SDS011;40181;51.560;13.000;2024-01-16T06:20:10;2.20;;;2.00;;
54269;SDS011;40181;51.560;13.000;2024-01-16T06:22:39;2.25;;;1.88;;
54269;SDS011;40181;51.560;13.000;2024-01-16T06:25:08;2.67;;;1.80;;
54269;SDS011;40181;51.560;13.000;2024-01-16T06:27:40;2.00;;;1.90;;
54269;SDS011;40181;51.560;13.000;2024-01-16T06:30:09;2.80;;;2.17;;
54269;SDS011;40181;51.560;13.000;2024-01-16T06:32:40;2.90;;;2.30;;
54269;SDS011;40181;51.560;13.000;2024-01-16T06:35:09;2.60;;;1.80;;
54269;SDS011;40181;51.560;13.000;2024-01-16T06:37:39;3.42;;;2.40;;
54269;SDS011;40181;51.560;13.000;2024-01-16T06:40:09;3.78;;;2.30;;
54269;SDS011;40181;51.560;13.000;2024-01-16T06:42:42;2.58;;;1.90;;
54269;SDS011;40181;51.560;13.000;2024-01-16T06:45:11;3.30;;;2.58;;
54269;SDS011;40181;51.560;13.000;2024-01-16T06:47:40;3.65;;;2.35;;
54269;SDS011;40181;51.560;13.000;2024-01-16T06:50:10;2.40;;;2.20;;
54269;SDS011;40181;51.560;13.000;2024-01-16T06:52:39;2.08;;;1.92;;
54269;SDS011;40181;51.560;13.000;2024-01-16T06:55:08;3.60;;;2.08;;
54269;SDS011;40181;51.560;13.000;2024-01-16T06:57:37;2.83;;;2.50;;
54269;SDS011;40181;51.560;13.000;2024-01-16T07:00:09;8.90;;;2.63;;
54269;SDS011;40181;51.560;13.000;2024-01-16T07:02:40;1.95;;;1.80;;
54269;SDS011;40181;51.560;13.000;2024-01-16T07:05:09;3.30;;;2.37;;
54269;SDS011;40181;51.560;13.000;2024-01-16T07:07:39;2.83;;;2.03;;
54269;SDS011;40181;51.560;13.000;2024-01-16T07:10:09;3.38;;;2.15;;
54269;SDS011;40181;51.560;13.000;2024-01-16T07:12:43;8.23;;;2.08;;
54269;SDS011;40181;51.560;13.000;2024-01-16T07:15:16;3.63;;;2.40;;
54269;SDS011;40181;51.560;13.000;2024-01-16T07:17:45;3.45;;;2.00;;
54269;SDS011;40181;51.560;13.000;2024-01-16T07:20:15;2.78;;;2.33;;
54269;SDS011;40181;51.560;13.000;2024-01-16T07:22:44;2.05;;;1.85;;
54269;SDS011;40181;51.560;13.000;2024-01-16T07:25:13;1.92;;;1.73;;
54269;SDS011;40181;51.560;13.000;2024-01-16T07:27:42;4.25;;;2.20;;
54269;SDS011;40181;51.560;13.000;2024-01-16T07:30:17;2.97;;;2.38;;
54269;SDS011;40181;51.560;13.000;2024-01-16T07:32:46;4.45;;;2.17;;
54269;SDS011;40181;51.560;13.000;2024-01-16T07:35:16;4.70;;;2.38;;
54269;SDS011;40181;51.560;13.000;2024-01-16T07:37:45;4.45;;;2.75;;
54269;SDS011;40181;51.560;13.000;2024-01-16T07:40:14;4.68;;;2.33;;
54269;SDS011;40181;51.560;13.000;2024-01-16T07:42:43;2.55;;;1.98;;
54269;SDS011;40181;51.560;13.000;2024-01-16T07:45:12;2.15;;;1.95;;
54269;SDS011;40181;51.560;13.000;2024-01-16T07:47:44;2.03;;;1.90;;
54269;SDS011;40181;51.560;13.000;2024-01-16T07:50:13;2.75;;;2.13;;
54269;SDS011;40181;51.560;13.000;2024-01-16T07:52:42;4.95;;;2.35;;
54269;SDS011;40181;51.560;13.000;2024-01-16T07:55:11;2.47;;;2.10;;
54269;SDS011;40181;51.560;13.000;2024-01-16T07:57:40;4.25;;;3.28;;
54269;SDS011;40181;51.560;13.000;2024-01-16T08:00:10;5.78;;;3.08;;
54269;SDS011;40181;51.560;13.000;2024-01-16T08:02:40;2.85;;;2.40;;
54269;SDS011;40181;51.560;13.000;2024-01-16T08:05:12;4.97;;;2.65;;
54269;SDS011;40181;51.560;13.000;2024-01-16T08:07:42;5.90;;;2.97;;
54269;SDS011;40181;51.560;13.000;2024-01-16T08:10:11;2.83;;;2.05;;
54269;SDS011;40181;51.560;13.000;2024-01-16T08:12:40;3.63;;;2.20;;
54269;SDS011;40181;51.560;13.000;2024-01-16T08:15:09;3.70;;;2.78;;
54269;SDS011;40181;51.560;13.000;2024-01-16T08:17:38;3.03;;;2.58;;
54269;SDS011;40181;51.560;13.000;2024-01-16T08:20:10;5.07;;;2.67;;
54269;SDS011;40181;51.560;13.000;2024-01-16T08:22:39;5.95;;;3.17;;
54269;SDS011;40181;51.560;13.000;2024-01-16T08:25:08;5.18;;;3.55;;
54269;SDS011;40181;51.560;13.000;2024-01-16T08:27:37;4.20;;;2.80;;
54269;SDS011;40181;51.560;13.000;2024-01-16T08:30:09;3.33;;;2.60;;
54269;SDS011;40181;51.560;13.000;2024-01-16T08:32:39;3.55;;;2.70;;
54269;SDS011;40181;51.560;13.000;2024-01-16T08:35:10;4.32;;;3.35;;
54269;SDS011;40181;51.560;13.000;2024-01-16T08:37:40;4.20;;;2.65;;
54269;SDS011;40181;51.560;13.000;2024-01-16T08:40:09;5.20;;;3.10;;
54269;SDS011;40181;51.560;13.000;2024-01-16T08:42:39;5.53;;;3.47;;
54269;SDS011;40181;51.560;13.000;2024-01-16T08:45:09;4.15;;;3.53;;
54269;SDS011;40181;51.560;13.000;2024-01-16T08:47:38;4.63;;;3.43;;
54269;SDS011;40181;51.560;13.000;2024-01-16T08:50:07;3.80;;;3.10;;
54269;SDS011;40181;51.560;13.000;2024-01-16T08:52:39;4.55;;;3.53;;
54269;SDS011;40181;51.560;13.000;2024-01-16T08:55:08;5.07;;;3.70;;
54269;SDS011;40181;51.560;13.000;2024-01-16T08:57:37;8.77;;;3.70;;
54269;SDS011;40181;51.560;13.000;2024-01-16T09:00:07;4.57;;;3.13;;
54269;SDS011;40181;51.560;13.000;2024-01-16T09:05:06;5.68;;;3.50;;
54269;SDS011;40181;51.560;13.000;2024-01-16T09:07:39;3.63;;;2.95;;
54269;SDS011;40181;51.560;13.000;2024-01-16T09:10:09;4.65;;;3.28;;
54269;SDS011;40181;51.560;13.000;2024-01-16T09:12:38;6.10;;;3.83;;
54269;SDS011;40181;51.560;13.000;2024-01-16T09:15:08;9.90;;;3.63;;
54269;SDS011;40181;51.560;13.000;2024-01-16T09:17:38;5.45;;;3.58;;
54269;SDS011;40181;51.560;13.000;2024-01-16T09:20:08;4.90;;;3.63;;
54269;SDS011;40181;51.560;13.000;2024-01-16T09:22:40;4.40;;;3.47;;
54269;SDS011;40181;51.560;13.000;2024-01-16T09:25:09;4.38;;;3.03;;
54269;SDS011;40181;51.560;13.000;2024-01-16T09:27:38;5.03;;;3.83;;
54269;SDS011;40181;51.560;13.000;2024-01-16T09:30:07;4.95;;;3.38;;
54269;SDS011;40181;51.560;13.000;2024-01-16T09:32:37;6.22;;;3.88;;
54269;SDS011;40181;51.560;13.000;2024-01-16T09:35:08;4.75;;;3.40;;
54269;SDS011;40181;51.560;13.000;2024-01-16T09:37:40;4.28;;;3.60;;
54269;SDS011;40181;51.560;13.000;2024-01-16T09:40:10;3.40;;;3.10;;
54269;SDS011;40181;51.560;13.000;2024-01-16T09:42:39;3.17;;;2.60;;
54269;SDS011;40181;51.560;13.000;2024-01-16T09:45:09;4.15;;;3.33;;
54269;SDS011;40181;51.560;13.000;2024-01-16T09:47:39;4.95;;;3.47;;
54269;SDS011;40181;51.560;13.000;2024-01-16T09:50:11;12.27;;;4.57;;
54269;SDS011;40181;51.560;13.000;2024-01-16T09:52:42;4.13;;;3.33;;
54269;SDS011;40181;51.560;13.000;2024-01-16T09:55:12;6.68;;;4.05;;
54269;SDS011;40181;51.560;13.000;2024-01-16T09:57:43;3.45;;;3.15;;
54269;SDS011;40181;51.560;13.000;2024-01-16T10:00:14;4.95;;;3.35;;
54269;SDS011;40181;51.560;13.000;2024-01-16T10:05:16;7.30;;;3.33;;
54269;SDS011;40181;51.560;13.000;2024-01-16T10:07:46;8.38;;;4.53;;
54269;SDS011;40181;51.560;13.000;2024-01-16T10:10:15;5.57;;;4.00;;
54269;SDS011;40181;51.560;13.000;2024-01-16T10:12:46;10.68;;;4.45;;
54269;SDS011;40181;51.560;13.000;2024-01-16T10:15:15;7.90;;;4.45;;
54269;SDS011;40181;51.560;13.000;2024-01-16T10:17:45;4.25;;;3.50;;
54269;SDS011;40181;51.560;13.000;2024-01-16T10:20:16;6.18;;;3.30;;
54269;SDS011;40181;51.560;13.000;2024-01-16T10:23:01;4.82;;;3.88;;
54269;SDS011;40181;51.560;13.000;2024-01-16T10:25:31;5.97;;;4.18;;
54269;SDS011;40181;51.560;13.000;2024-01-16T10:28:03;7.93;;;5.47;;
54269;SDS011;40181;51.560;13.000;2024-01-16T10:30:36;4.65;;;3.45;;
54269;SDS011;40181;51.560;13.000;2024-01-16T10:33:14;6.80;;;3.83;;
54269;SDS011;40181;51.560;13.000;2024-01-16T10:35:46;7.53;;;4.20;;
54269;SDS011;40181;51.560;13.000;2024-01-16T10:38:19;4.28;;;3.50;;
54269;SDS011;40181;51.560;13.000;2024-01-16T10:41:03;5.43;;;3.53;;
54269;SDS011;40181;51.560;13.000;2024-01-16T10:43:34;4.88;;;3.42;;
54269;SDS011;40181;51.560;13.000;2024-01-16T10:46:06;13.57;;;4.53;;
54269;SDS011;40181;51.560;13.000;2024-01-16T10:48:37;8.00;;;3.83;;
54269;SDS011;40181;51.560;13.000;2024-01-16T10:51:10;9.27;;;3.75;;
54269;SDS011;40181;51.560;13.000;2024-01-16T10:53:43;5.40;;;4.07;;
54269;SDS011;40181;51.560;13.000;2024-01-16T10:56:13;9.88;;;4.95;;
54269;SDS011;40181;51.560;13.000;2024-01-16T10:58:42;4.53;;;3.40;;
54269;SDS011;40181;51.560;13.000;2024-01-16T11:01:14;10.88;;;3.85;;
54269;SDS011;40181;51.560;13.000;2024-01-16T11:03:46;5.47;;;3.28;;
54269;SDS011;40181;51.560;13.000;2024-01-16T11:06:20;6.55;;;4.10;;
54269;SDS011;40181;51.560;13.000;2024-01-16T11:08:49;5.43;;;3.80;;
54269;SDS011;40181;51.560;13.000;2024-01-16T11:11:21;6.50;;;3.80;;
54269;SDS011;40181;51.560;13.000;2024-01-16T11:13:51;5.97;;;4.20;;
54269;SDS011;40181;51.560;13.000;2024-01-16T11:16:23;5.55;;;3.97;;
54269;SDS011;40181;51.560;13.000;2024-01-16T11:18:52;13.40;;;5.30;;
54269;SDS011;40181;51.560;13.000;2024-01-16T11:21:24;5.68;;;4.18;;
54269;SDS011;40181;51.560;13.000;2024-01-16T11:23:54;7.55;;;3.83;;
54269;SDS011;40181;51.560;13.000;2024-01-16T11:26:27;4.28;;;3.25;;
54269;SDS011;40181;51.560;13.000;2024-01-16T11:28:58;4.93;;;3.75;;
54269;SDS011;40181;51.560;13.000;2024-01-16T11:31:28;5.53;;;4.20;;
54269;SDS011;40181;51.560;13.000;2024-01-16T11:34:02;4.25;;;3.70;;
54269;SDS011;40181;51.560;13.000;2024-01-16T11:36:47;7.53;;;3.88;;
54269;SDS011;40181;51.560;13.000;2024-01-16T11:39:20;7.00;;;3.63;;
54269;SDS011;40181;51.560;13.000;2024-01-16T11:47:09;8.07;;;3.60;;
54269;SDS011;40181;51.560;13.000;2024-01-16T11:49:45;9.45;;;3.58;;
54269;SDS011;40181;51.560;13.000;2024-01-16T11:52:17;5.32;;;3.97;;
54269;SDS011;40181;51.560;13.000;2024-01-16T11:55:24;3.90;;;3.42;;
54269;SDS011;40181;51.560;13.000;2024-01-16T12:01:03;5.22;;;4.10;;
54269;SDS011;40181;51.560;13.000;2024-01-16T12:03:34;3.70;;;3.20;;
54269;SDS011;40181;51.560;13.000;2024-01-16T12:06:03;5.50;;;3.17;;
54269;SDS011;40181;51.560;13.000;2024-01-16T12:08:36;5.53;;;3.25;;
54269;SDS011;40181;51.560;13.000;2024-01-16T12:11:07;6.63;;;3.95;;
54269;SDS011;40181;51.560;13.000;2024-01-16T12:13:36;4.47;;;3.05;;
54269;SDS011;40181;51.560;13.000;2024-01-16T12:16:05;11.95;;;4.65;;
54269;SDS011;40181;51.560;13.000;2024-01-16T12:18:34;5.93;;;3.47;;
54269;SDS011;40181;51.560;13.000;2024-01-16T12:21:10;3.90;;;2.80;;
54269;SDS011;40181;51.560;13.000;2024-01-16T12:23:43;6.28;;;3.20;;
54269;SDS011;40181;51.560;13.000;2024-01-16T12:26:19;4.20;;;3.15;;
54269;SDS011;40181;51.560;13.000;2024-01-16T12:28:50;3.85;;;3.17;;
54269;SDS011;40181;51.560;13.000;2024-01-16T12:31:20;4.03;;;2.65;;
54269;SDS011;40181;51.560;13.000;2024-01-16T12:33:49;7.03;;;2.88;;
54269;SDS011;40181;51.560;13.000;2024-01-16T12:36:18;7.18;;;3.53;;
54269;SDS011;40181;51.560;13.000;2024-01-16T12:38:56;3.15;;;2.83;;
54269;SDS011;40181;51.560;13.000;2024-01-16T12:41:25;3.17;;;2.83;;
54269;SDS011;40181;51.560;13.000;2024-01-16T12:43:58;6.95;;;4.00;;
54269;SDS011;40181;51.560;13.000;2024-01-16T12:46:27;5.68;;;3.33;;
54269;SDS011;40181;51.560;13.000;2024-01-16T12:48:59;4.23;;;3.20;;
54269;SDS011;40181;51.560;13.000;2024-01-16T12:51:31;6.15;;;3.13;;
54269;SDS011;40181;51.560;13.000;2024-01-16T12:54:15;5.00;;;3.08;;
54269;SDS011;40181;51.560;13.000;2024-01-16T12:56:47;8.07;;;4.15;;
54269;SDS011;40181;51.560;13.000;2024-01-16T12:59:16;4.55;;;3.20;;
54269;SDS011;40181;51.560;13.000;2024-01-16T13:01:45;7.32;;;3.47;;
54269;SDS011;40181;51.560;13.000;2024-01-16T13:04:15;8.07;;;3.00;;
54269;SDS011;40181;51.560;13.000;2024-01-16T13:06:46;4.00;;;2.95;;
54269;SDS011;40181;51.560;13.000;2024-01-16T13:09:18;5.97;;;3.78;;
54269;SDS011;40181;51.560;13.000;2024-01-16T13:11:51;8.02;;;3.25;;
54269;SDS011;40181;51.560;13.000;2024-01-16T13:14:23;7.63;;;4.00;;
54269;SDS011;40181;51.560;13.000;2024-01-16T13:16:53;4.75;;;3.88;;
54269;SDS011;40181;51.560;13.000;2024-01-16T13:19:23;5.15;;;3.05;;
54269;SDS011;40181;51.560;13.000;2024-01-16T13:21:54;3.67;;;2.75;;
54269;SDS011;40181;51.560;13.000;2024-01-16T13:24:25;3.65;;;2.95;;
54269;SDS011;40181;51.560;13.000;2024-01-16T13:26:54;11.20;;;4.30;;
54269;SDS011;40181;51.560;13.000;2024-01-16T13:29:23;4.78;;;2.97;;
54269;SDS011;40181;51.560;13.000;2024-01-16T13:31:53;3.10;;;2.70;;
54269;SDS011;40181;51.560;13.000;2024-01-16T13:34:23;4.73;;;3.57;;
54269;SDS011;40181;51.560;13.000;2024-01-16T13:36:52;6.68;;;3.75;;
54269;SDS011;40181;51.560;13.000;2024-01-16T13:39:27;4.35;;;2.63;;
54269;SDS011;40181;51.560;13.000;2024-01-16T13:41:59;6.47;;;3.80;;
54269;SDS011;40181;51.560;13.000;2024-01-16T13:44:30;3.15;;;2.80;;
54269;SDS011;40181;51.560;13.000;2024-01-16T13:46:59;3.92;;;3.00;;
54269;SDS011;40181;51.560;13.000;2024-01-16T13:49:28;6.93;;;3.28;;
54269;SDS011;40181;51.560;13.000;2024-01-16T13:51:58;4.38;;;3.20;;
54269;SDS011;40181;51.560;13.000;2024-01-16T13:54:30;8.82;;;3.30;;
54269;SDS011;40181;51.560;13.000;2024-01-16T13:56:59;3.63;;;3.03;;
54269;SDS011;40181;51.560;13.000;2024-01-16T13:59:28;5.60;;;3.35;;
54269;SDS011;40181;51.560;13.000;2024-01-16T14:01:57;4.10;;;3.20;;
54269;SDS011;40181;51.560;13.000;2024-01-16T14:04:26;4.13;;;3.30;;
54269;SDS011;40181;51.560;13.000;2024-01-16T14:06:55;5.38;;;2.70;;
54269;SDS011;40181;51.560;13.000;2024-01-16T14:11:57;2.92;;;2.63;;
54269;SDS011;40181;51.560;13.000;2024-01-16T14:14:29;5.13;;;3.35;;
54269;SDS011;40181;51.560;13.000;2024-01-16T14:16:58;4.22;;;3.15;;
54269;SDS011;40181;51.560;13.000;2024-01-16T14:19:27;4.63;;;3.20;;
54269;SDS011;40181;51.560;13.000;2024-01-16T14:21:56;4.72;;;3.58;;
54269;SDS011;40181;51.560;13.000;2024-01-16T14:24:26;7.20;;;4.43;;
54269;SDS011;40181;51.560;13.000;2024-01-16T14:26:57;3.83;;;3.10;;
54269;SDS011;40181;51.560;13.000;2024-01-16T14:29:26;4.85;;;3.70;;
54269;SDS011;40181;51.560;13.000;2024-01-16T14:31:59;7.72;;;4.25;;
54269;SDS011;40181;51.560;13.000;2024-01-16T14:34:28;4.90;;;3.88;;
54269;SDS011;40181;51.560;13.000;2024-01-16T14:36:57;4.53;;;3.63;;
54269;SDS011;40181;51.560;13.000;2024-01-16T14:39:26;4.43;;;3.42;;
54269;SDS011;40181;51.560;13.000;2024-01-16T14:41:58;5.45;;;3.42;;
54269;SDS011;40181;51.560;13.000;2024-01-16T14:44:27;3.25;;;2.80;;
54269;SDS011;40181;51.560;13.000;2024-01-16T14:46:56;5.40;;;3.42;;
54269;SDS011;40181;51.560;13.000;2024-01-16T14:49:25;4.20;;;3.58;;
54269;SDS011;40181;51.560;13.000;2024-01-16T14:51:57;5.20;;;4.32;;
54269;SDS011;40181;51.560;13.000;2024-01-16T14:54:26;5.65;;;3.75;;
54269;SDS011;40181;51.560;13.000;2024-01-16T14:56:58;4.15;;;3.22;;
54269;SDS011;40181;51.560;13.000;2024-01-16T14:59:29;4.78;;;3.83;;
54269;SDS011;40181;51.560;13.000;2024-01-16T15:01:59;5.78;;;3.70;;
54269;SDS011;40181;51.560;13.000;2024-01-16T15:04:37;4.30;;;3.38;;
54269;SDS011;40181;51.560;13.000;2024-01-16T15:07:07;4.25;;;3.85;;